Time;durP1;ratioP1;P1;durP2;ratioP2;P2;SDS_P1;SDS_P2;PMS_P1;PMS_P2;Temp;Humidity;BMP_temperature;BMP_pressure;BME280_temperature;BME280_humidity;BME280_pressure;Samples;Min_cycle;Max_cycle;Signal;HPM_P1;HPM_P2
2022/11/02 05:01:14;;;;;;;0.60;0.20;;;11.80;1.00;;;;;;5711201;23;20528;-77
2022/11/02 05:03:42;;;;;;;0.50;0.10;;;11.80;1.00;;;;;;4963258;28;20450;-77
2022/11/02 05:06:10;;;;;;;0.60;0.37;;;11.60;1.00;;;;;;4978750;28;20478;-76
2022/11/02 05:08:38;;;;;;;0.80;0.30;;;11.60;1.00;;;;;;4978941;28;20443;-77
2022/11/02 05:11:06;;;;;;;0.57;0.10;;;11.60;1.00;;;;;;4979416;28;20469;-77
2022/11/02 05:16:05;;;;;;;0.60;0.10;;;11.60;1.00;;;;;;4917172;29;20884;-73
2022/11/02 05:18:34;;;;;;;0.60;0.10;;;11.60;1.00;;;;;;4919862;29;20452;-72
2022/11/02 05:21:02;;;;;;;0.60;0.20;;;11.60;1.00;;;;;;4919735;29;20480;-73
2022/11/02 05:23:30;;;;;;;0.70;0.50;;;11.50;1.00;;;;;;4918278;29;20864;-73
2022/11/02 05:25:59;;;;;;;0.60;0.10;;;11.50;1.00;;;;;;4919573;29;20555;-74
2022/11/02 05:28:28;;;;;;;0.53;0.10;;;11.50;1.00;;;;;;4919493;29;20484;-74
2022/11/02 05:30:58;;;;;;;0.60;0.10;;;11.60;1.00;;;;;;4917632;29;20472;-74
2022/11/02 05:33:28;;;;;;;0.60;0.17;;;11.60;1.00;;;;;;4915371;29;20484;-73
2022/11/02 05:36:00;;;;;;;1.07;0.53;;;11.60;1.00;;;;;;4910084;29;20577;-73
2022/11/02 05:38:28;;;;;;;0.60;0.10;;;11.50;1.00;;;;;;4915455;29;20948;-74
2022/11/02 05:40:58;;;;;;;1.90;0.57;;;11.50;1.00;;;;;;4911648;29;20532;-72
2022/11/02 05:43:26;;;;;;;0.70;0.23;;;;;;;;;;4918485;29;20528;-74
2022/11/02 05:45:56;;;;;;;0.60;0.20;;;11.50;1.00;;;;;;4919247;29;20452;-74
2022/11/02 05:48:25;;;;;;;0.60;0.30;;;11.40;1.00;;;;;;4919060;29;20445;-74
2022/11/02 05:50:55;;;;;;;2.07;1.73;;;;;;;;;;4919088;29;20963;-73
2022/11/02 05:53:26;;;;;;;0.60;0.10;;;11.40;1.00;;;;;;4918937;29;20465;-73
2022/11/02 05:55:57;;;;;;;0.60;0.10;;;11.40;1.00;;;;;;4918996;29;20449;-73
2022/11/02 05:58:26;;;;;;;0.60;0.20;;;11.40;1.00;;;;;;4920009;29;20462;-73
2022/11/02 06:00:54;;;;;;;0.60;0.10;;;11.50;1.00;;;;;;4918809;29;20449;-74
2022/11/02 06:03:22;;;;;;;0.50;0.10;;;11.50;1.00;;;;;;4915759;29;20453;-73
2022/11/02 06:05:55;;;;;;;0.60;0.10;;;11.50;1.00;;;;;;4916146;29;20543;-73
2022/11/02 06:08:25;;;;;;;0.60;0.10;;;12.20;1.00;;;;;;4911062;29;21022;-73
2022/11/02 06:10:52;;;;;;;0.60;0.10;;;11.40;1.00;;;;;;4913351;29;20445;-73
2022/11/02 06:13:20;;;;;;;0.50;0.10;;;11.40;1.00;;;;;;4918454;29;20448;-73
2022/11/02 06:15:48;;;;;;;0.60;0.10;;;11.40;1.00;;;;;;4926288;29;20484;-74
2022/11/02 06:18:16;;;;;;;0.60;0.10;;;11.40;1.00;;;;;;4928643;29;20441;-73
2022/11/02 06:20:44;;;;;;;0.60;0.10;;;11.40;1.00;;;;;;4925852;29;20445;-75
2022/11/02 06:23:16;;;;;;;0.60;0.10;;;;;;;;;;4922870;29;20481;-72
2022/11/02 06:25:51;;;;;;;1.00;0.30;;;11.30;1.00;;;;;;4925911;29;20829;-73
2022/11/02 06:28:19;;;;;;;0.60;0.10;;;11.30;1.00;;;;;;4921091;29;20523;-73
2022/11/02 06:30:46;;;;;;;0.60;0.10;;;11.30;1.00;;;;;;4921901;29;20453;-73
2022/11/02 06:33:15;;;;;;;0.50;0.20;;;11.30;1.00;;;;;;4908526;29;20918;-73
2022/11/02 06:35:45;;;;;;;0.50;0.10;;;11.30;1.00;;;;;;4919554;29;20492;-73
2022/11/02 06:38:14;;;;;;;0.60;0.10;;;11.30;1.00;;;;;;4918948;29;20871;-74
2022/11/02 06:40:42;;;;;;;0.60;0.20;;;11.40;1.00;;;;;;4919329;29;20453;-73
2022/11/02 06:43:12;;;;;;;0.60;0.10;;;11.50;1.00;;;;;;4918202;29;20456;-74
2022/11/02 06:45:45;;;;;;;1.37;0.50;;;11.50;1.00;;;;;;4918442;29;20519;-72
2022/11/02 06:48:13;;;;;;;0.60;0.20;;;11.50;1.00;;;;;;4918789;29;20859;-72
2022/11/02 06:50:41;;;;;;;0.50;0.20;;;11.50;1.00;;;;;;4918648;29;20935;-72
2022/11/02 06:53:09;;;;;;;0.60;0.20;;;11.60;1.00;;;;;;4918866;29;21148;-73
2022/11/02 06:55:36;;;;;;;0.60;0.10;;;11.50;1.00;;;;;;4919356;29;20469;-73
2022/11/02 06:58:04;;;;;;;0.60;0.10;;;11.60;1.00;;;;;;4921243;29;20449;-74
2022/11/02 07:00:34;;;;;;;0.50;0.10;;;11.60;1.00;;;;;;4917851;29;20461;-71
2022/11/02 07:03:03;;;;;;;0.50;0.10;;;11.60;1.00;;;;;;4912220;29;20560;-72
2022/11/02 07:05:32;;;;;;;0.60;0.10;;;11.70;1.00;;;;;;4900556;29;20466;-73
2022/11/02 07:08:00;;;;;;;0.50;0.10;;;11.90;1.00;;;;;;4898614;29;20489;-74
2022/11/02 07:10:28;;;;;;;0.50;0.10;;;11.90;1.00;;;;;;4904691;29;20453;-74
2022/11/02 07:12:57;;;;;;;0.60;0.10;;;11.90;1.00;;;;;;4919462;29;20457;-73
2022/11/02 07:15:26;;;;;;;0.50;0.10;;;11.90;1.00;;;;;;4918021;29;20484;-73
2022/11/02 07:17:56;;;;;;;0.50;0.10;;;11.80;1.00;;;;;;4918063;29;20584;-74
2022/11/02 07:20:23;;;;;;;0.50;0.10;;;11.80;1.00;;;;;;4922301;29;20953;-72
2022/11/02 07:22:55;;;;;;;0.60;0.20;;;11.80;1.00;;;;;;4927521;29;20452;-73
2022/11/02 07:25:24;;;;;;;0.60;0.10;;;11.90;1.00;;;;;;4931996;29;20468;-73
2022/11/02 07:27:52;;;;;;;0.60;0.10;;;11.90;1.00;;;;;;4932644;29;20556;-74
2022/11/02 07:30:20;;;;;;;0.50;0.10;;;11.80;1.00;;;;;;4932018;29;20902;-73
2022/11/02 07:32:48;;;;;;;0.60;0.10;;;11.90;1.00;;;;;;4920074;29;20453;-73
2022/11/02 07:35:18;;;;;;;0.50;0.10;;;11.90;1.00;;;;;;4919404;29;20480;-73
2022/11/02 07:37:55;;;;;;;0.50;0.10;;;11.90;1.00;;;;;;4919225;29;20838;-74
2022/11/02 07:40:23;;;;;;;0.60;0.10;;;11.90;1.00;;;;;;4917926;29;20457;-76
2022/11/02 07:42:52;;;;;;;0.60;0.10;;;11.90;1.00;;;;;;4917822;29;20448;-76
2022/11/02 07:45:20;;;;;;;1.03;1.03;;;11.90;1.00;;;;;;4916673;29;20539;-74
2022/11/02 07:47:49;;;;;;;1.40;1.03;;;11.90;1.00;;;;;;4918087;29;20489;-73
2022/11/02 07:50:21;;;;;;;0.60;0.10;;;11.90;1.00;;;;;;4917659;29;20493;-73
2022/11/02 07:52:50;;;;;;;0.73;0.73;;;12.00;1.00;;;;;;4916915;29;20536;-73
2022/11/02 07:55:20;;;;;;;0.60;0.10;;;12.00;1.00;;;;;;4916666;29;21047;-73
2022/11/02 07:57:53;;;;;;;0.60;0.10;;;12.00;1.00;;;;;;4916753;29;20504;-73
2022/11/02 08:00:21;;;;;;;0.50;0.10;;;12.10;1.00;;;;;;4917303;29;20453;-74
2022/11/02 08:02:53;;;;;;;0.53;0.10;;;12.10;1.00;;;;;;4901852;29;20485;-74
2022/11/02 08:05:23;;;;;;;0.60;0.10;;;12.20;1.00;;;;;;4916440;29;21023;-73
2022/11/02 08:07:57;;;;;;;0.60;0.30;;;12.20;1.00;;;;;;4917163;29;20543;-73
2022/11/02 08:10:25;;;;;;;0.60;0.10;;;12.30;1.00;;;;;;4914262;29;20453;-73
2022/11/02 08:12:53;;;;;;;0.60;0.10;;;12.20;1.00;;;;;;4897747;29;20450;-73
2022/11/02 08:15:21;;;;;;;0.50;0.10;;;12.30;1.00;;;;;;4914644;29;20496;-74
2022/11/02 08:17:59;;;;;;;0.60;0.30;;;12.30;1.00;;;;;;4917084;29;20445;-74
2022/11/02 08:20:28;;;;;;;0.60;0.30;;;12.30;1.00;;;;;;4917000;29;20445;-74
2022/11/02 08:22:56;;;;;;;0.60;0.20;;;12.20;1.00;;;;;;4916889;29;20460;-73
2022/11/02 08:25:25;;;;;;;0.60;0.20;;;12.30;1.00;;;;;;4924137;29;20488;-74
2022/11/02 08:27:56;;;;;;;0.60;0.10;;;12.30;1.00;;;;;;4931554;29;20569;-73
2022/11/02 08:30:24;;;;;;;0.60;0.20;;;12.30;1.00;;;;;;4928932;29;20883;-73
2022/11/02 08:32:51;;;;;;;0.60;0.10;;;12.40;1.00;;;;;;4923155;29;20441;-74
2022/11/02 08:35:24;;;;;;;0.60;0.10;;;12.50;1.00;;;;;;4917333;29;20477;-73
2022/11/02 08:37:58;;;;;;;2.30;0.40;;;12.50;1.00;;;;;;4923606;29;20531;-74
2022/11/02 08:40:27;;;;;;;0.60;0.10;;;12.60;1.00;;;;;;4923144;29;20472;-72
2022/11/02 08:42:58;;;;;;;0.60;0.10;;;12.80;1.00;;;;;;4907490;29;20880;-73
2022/11/02 08:45:27;;;;;;;0.60;0.10;;;12.90;1.00;;;;;;4909741;29;20477;-73
2022/11/02 08:47:55;;;;;;;0.93;0.37;;;12.90;1.00;;;;;;4910415;29;20480;-72
2022/11/02 08:50:24;;;;;;;0.60;0.10;;;13.00;1.00;;;;;;4907802;29;20533;-73
2022/11/02 08:52:52;;;;;;;0.60;0.20;;;13.00;1.00;;;;;;4906973;29;20453;-73
2022/11/02 08:55:21;;;;;;;0.87;0.63;;;13.10;1.00;;;;;;4913503;29;20477;-72
2022/11/02 08:57:50;;;;;;;0.60;0.10;;;13.10;1.00;;;;;;4916677;29;20822;-72
2022/11/02 09:00:20;;;;;;;0.60;0.20;;;13.20;1.00;;;;;;4916968;29;20508;-73
2022/11/02 09:02:59;;;;;;;0.60;0.10;;;13.20;1.00;;;;;;4916947;29;20471;-73
2022/11/02 09:05:27;;;;;;;0.60;0.10;;;13.40;1.00;;;;;;4917375;29;20473;-72
2022/11/02 09:07:56;;;;;;;0.60;0.30;;;13.40;1.00;;;;;;4916882;29;21070;-72
2022/11/02 09:10:26;;;;;;;0.60;0.20;;;13.50;1.00;;;;;;4916699;29;20504;-73
2022/11/02 09:12:54;;;;;;;0.60;0.10;;;13.60;1.00;;;;;;4914503;29;20516;-73
2022/11/02 09:15:22;;;;;;;0.60;0.27;;;13.60;1.00;;;;;;4909167;29;20984;-72
2022/11/02 09:17:50;;;;;;;2.00;0.77;;;13.70;1.00;;;;;;4914781;29;20467;-73
2022/11/02 09:20:20;;;;;;;5.50;1.00;;;13.80;1.00;;;;;;4919033;29;20449;-73
2022/11/02 09:22:48;;;;;;;0.60;0.10;;;13.80;1.00;;;;;;4903924;29;20499;-73
2022/11/02 09:25:16;;;;;;;2.53;0.60;;;13.90;1.00;;;;;;4920407;29;20493;-74
2022/11/02 09:27:46;;;;;;;1.67;0.70;;;13.90;1.00;;;;;;4919556;29;20495;-73
2022/11/02 09:30:20;;;;;;;1.63;1.17;;;13.90;1.00;;;;;;4920591;29;20455;-73
2022/11/02 09:32:53;;;;;;;0.60;0.10;;;13.80;1.00;;;;;;4918617;29;20464;-72
2022/11/02 09:35:22;;;;;;;0.97;0.97;;;13.90;1.00;;;;;;4919293;29;20469;-74
2022/11/02 09:37:50;;;;;;;1.30;0.60;;;14.00;1.00;;;;;;4914755;29;20449;-73
2022/11/02 09:40:21;;;;;;;0.60;0.20;;;14.00;1.00;;;;;;4920115;29;20448;-74
2022/11/02 09:43:00;;;;;;;0.80;0.30;;;14.00;1.00;;;;;;4901309;29;20458;-74
2022/11/02 09:45:32;;;;;;;0.60;0.10;;;14.00;1.00;;;;;;4900604;29;20472;-74
2022/11/02 09:48:05;;;;;;;0.80;0.30;;;14.00;1.00;;;;;;4899592;29;20517;-74
2022/11/02 09:50:58;;;;;;;0.60;0.10;;;14.00;1.00;;;;;;4903708;29;20903;-73
2022/11/02 09:53:39;;;;;;;0.60;0.10;;;14.20;1.00;;;;;;4918512;29;20444;-73
2022/11/02 09:56:08;;;;;;;0.60;0.40;;;14.20;1.00;;;;;;4904580;29;20948;-73
2022/11/02 09:58:39;;;;;;;0.60;0.30;;;14.30;1.00;;;;;;4899271;29;20445;-73
2022/11/02 10:01:19;;;;;;;0.60;0.20;;;14.50;1.00;;;;;;4916927;29;20453;-73
2022/11/02 10:04:05;;;;;;;2.10;1.07;;;14.50;1.00;;;;;;4899300;29;20461;-73
2022/11/02 10:06:37;;;;;;;0.70;0.30;;;14.50;1.00;;;;;;4899687;29;20449;-73
2022/11/02 10:09:12;;;;;;;0.60;0.10;;;14.50;1.00;;;;;;4905833;29;20726;-73
2022/11/02 10:11:47;;;;;;;2.03;0.30;;;14.50;1.00;;;;;;4913883;29;20452;-73
2022/11/02 10:14:23;;;;;;;6.40;0.60;;;14.60;1.00;;;;;;4882881;29;1035972;-73
2022/11/02 10:16:55;;;;;;;0.60;0.20;;;14.60;1.00;;;;;;4918682;29;20263;-72
2022/11/02 10:19:23;;;;;;;0.60;0.20;;;14.60;1.00;;;;;;4918307;29;20520;-73
2022/11/02 10:21:58;;;;;;;0.60;0.10;;;14.70;1.00;;;;;;4918452;29;20453;-74
2022/11/02 10:24:31;;;;;;;0.70;0.27;;;14.70;1.00;;;;;;4918008;29;20999;-73
2022/11/02 10:27:01;;;;;;;0.60;0.20;;;14.90;1.00;;;;;;4918459;29;20457;-73
2022/11/02 10:29:46;;;;;;;0.80;0.63;;;14.90;1.00;;;;;;4914965;29;20544;-73
2022/11/02 10:32:17;;;;;;;4.00;1.90;;;15.00;1.00;;;;;;4915199;29;20460;-73
2022/11/02 10:34:45;;;;;;;1.00;0.80;;;14.90;1.00;;;;;;4919183;29;20473;-72
2022/11/02 10:37:42;;;;;;;0.60;0.10;;;14.90;1.00;;;;;;4920149;29;20525;-73
2022/11/02 10:40:22;;;;;;;0.60;0.10;;;14.70;1.00;;;;;;4907462;29;20863;-72
2022/11/02 10:43:04;;;;;;;0.70;0.20;;;14.60;1.00;;;;;;4918999;29;20451;-73
2022/11/02 10:46:01;;;;;;;1.37;0.50;;;14.50;1.00;;;;;;4919980;29;20461;-73
2022/11/02 10:48:37;;;;;;;0.60;0.20;;;14.50;1.00;;;;;;4919101;29;20456;-73
2022/11/02 10:51:11;;;;;;;1.27;0.40;;;14.50;1.00;;;;;;4919987;29;20455;-72
2022/11/02 10:53:41;;;;;;;0.93;0.40;;;14.50;1.00;;;;;;4919805;29;20460;-73
2022/11/02 10:56:15;;;;;;;0.70;0.40;;;14.50;1.00;;;;;;4919566;29;20484;-72
2022/11/02 10:58:49;;;;;;;0.70;0.30;;;14.50;1.00;;;;;;4919187;29;20944;-74
2022/11/02 11:01:18;;;;;;;0.70;0.30;;;14.60;1.00;;;;;;4918526;29;20966;-75
2022/11/02 11:03:55;;;;;;;0.87;0.57;;;14.90;1.00;;;;;;4923329;29;20509;-74
2022/11/02 11:06:24;;;;;;;3.07;1.50;;;14.90;1.00;;;;;;4931967;29;20464;-73
2022/11/02 11:08:52;;;;;;;1.93;0.80;;;15.00;1.00;;;;;;4928644;29;20459;-73
2022/11/02 11:11:23;;;;;;;1.07;0.30;;;15.10;1.00;;;;;;4911094;29;20509;-72
2022/11/02 11:13:57;;;;;;;1.07;0.83;;;15.30;1.00;;;;;;4907230;29;20466;-73
2022/11/02 11:16:46;;;;;;;0.60;0.20;;;15.30;1.00;;;;;;4995840;23;20999;-78
2022/11/02 11:19:21;;;;;;;0.60;0.10;;;15.40;1.00;;;;;;4975199;28;20442;-76
2022/11/02 11:22:24;;;;;;;0.60;0.10;;;15.40;1.00;;;;;;4976475;28;20451;-76
2022/11/02 11:24:52;;;;;;;0.60;0.10;;;15.50;1.00;;;;;;4981396;28;20473;-75
2022/11/02 11:27:21;;;;;;;0.60;0.20;;;15.50;1.00;;;;;;4995151;28;20943;-75
2022/11/02 11:29:54;;;;;;;0.70;0.20;;;15.50;1.00;;;;;;4978599;28;20481;-78
2022/11/02 11:32:26;;;;;;;0.83;0.40;;;15.20;1.00;;;;;;4974539;28;20529;-77
2022/11/02 11:35:01;;;;;;;1.80;0.47;;;15.20;1.00;;;;;;4980838;28;20548;-77
2022/11/02 11:37:30;;;;;;;1.47;0.30;;;15.10;1.00;;;;;;4980160;28;20458;-75
2022/11/02 11:40:01;;;;;;;0.60;0.20;;;15.10;1.00;;;;;;4978668;28;20447;-76
2022/11/02 11:42:34;;;;;;;0.60;0.10;;;15.10;1.00;;;;;;4990634;28;20955;-77
2022/11/02 11:45:04;;;;;;;0.60;0.20;;;15.30;1.00;;;;;;4987236;28;20522;-77
2022/11/02 11:47:36;;;;;;;1.47;0.30;;;15.40;1.00;;;;;;4975183;28;20519;-76
2022/11/02 11:50:07;;;;;;;0.67;0.20;;;15.50;1.00;;;;;;4967617;28;20477;-76
2022/11/02 11:52:42;;;;;;;0.60;0.10;;;15.60;1.00;;;;;;4976175;28;20454;-75
2022/11/02 11:55:22;;;;;;;0.60;0.10;;;15.80;1.00;;;;;;4982780;28;20568;-77
2022/11/02 11:58:05;;;;;;;0.90;0.63;;;15.70;1.00;;;;;;4996173;28;20524;-78
2022/11/02 12:00:34;;;;;;;0.60;0.10;;;15.80;1.00;;;;;;4996917;28;20461;-77
2022/11/02 12:03:05;;;;;;;1.00;0.43;;;15.80;1.00;;;;;;4995748;28;20457;-76
2022/11/02 12:05:47;;;;;;;0.60;0.10;;;15.90;1.00;;;;;;4985957;28;20473;-75
2022/11/02 12:08:30;;;;;;;0.60;0.10;;;15.80;1.00;;;;;;4975809;28;20453;-76
2022/11/02 12:11:07;;;;;;;0.60;0.20;;;15.90;1.00;;;;;;4979009;28;20482;-76
2022/11/02 12:13:55;;;;;;;0.60;0.10;;;16.10;1.00;;;;;;4978936;28;20459;-77
2022/11/02 12:16:33;;;;;;;0.60;0.10;;;16.30;1.00;;;;;;4991120;28;20753;-77
2022/11/02 12:19:15;;;;;;;0.60;0.20;;;16.20;1.00;;;;;;4977445;28;20469;-77
2022/11/02 12:22:01;;;;;;;4.60;1.40;;;16.00;1.00;;;;;;4984267;28;20496;-75
2022/11/02 12:25:05;;;;;;;0.60;0.10;;;15.90;1.00;;;;;;4983621;28;20448;-77
2022/11/02 12:27:42;;;;;;;3.87;3.50;;;15.90;1.00;;;;;;4977128;28;20438;-77
2022/11/02 12:30:15;;;;;;;0.60;0.10;;;15.90;1.00;;;;;;4973994;28;20489;-77
2022/11/02 12:33:12;;;;;;;1.07;0.43;;;15.90;1.00;;;;;;4975256;28;20452;-77
2022/11/02 12:36:16;;;;;;;0.60;0.20;;;16.00;1.00;;;;;;4941394;28;20466;-77
2022/11/02 12:38:52;;;;;;;0.60;0.20;;;16.00;1.00;;;;;;4964697;28;20462;-77
2022/11/02 12:41:35;;;;;;;0.60;0.10;;;16.20;1.00;;;;;;4994496;28;20453;-77
2022/11/02 12:44:18;;;;;;;0.80;0.30;;;16.20;1.00;;;;;;4969650;28;20823;-77
2022/11/02 12:46:53;;;;;;;0.60;0.10;;;16.10;1.00;;;;;;4978235;28;20461;-78
2022/11/02 12:49:36;;;;;;;0.60;0.10;;;16.10;1.00;;;;;;4961846;28;20858;-76
2022/11/02 12:52:16;;;;;;;0.60;0.10;;;16.20;1.00;;;;;;4958245;28;20458;-77
2022/11/02 12:54:47;;;;;;;0.60;0.20;;;16.30;1.00;;;;;;4987442;28;20964;-78
2022/11/02 12:57:18;;;;;;;1.43;1.13;;;16.30;1.00;;;;;;4980672;28;20493;-77
2022/11/02 12:59:49;;;;;;;0.60;0.10;;;16.30;1.00;;;;;;4979636;28;20446;-76
2022/11/02 13:02:22;;;;;;;0.60;0.10;;;16.30;1.00;;;;;;4999134;28;20452;-76
2022/11/02 13:04:56;;;;;;;0.60;0.10;;;16.30;1.00;;;;;;4980382;28;21123;-77
2022/11/02 13:07:30;;;;;;;0.60;0.10;;;16.40;1.00;;;;;;4981110;28;20458;-77
2022/11/02 13:10:04;;;;;;;0.60;0.10;;;16.50;1.00;;;;;;4981340;28;20481;-77
2022/11/02 13:12:36;;;;;;;0.60;0.13;;;16.50;1.00;;;;;;4962388;29;20490;-76
2022/11/02 13:15:06;;;;;;;0.60;0.20;;;16.40;1.00;;;;;;5000117;28;20488;-77
2022/11/02 13:17:44;;;;;;;0.60;0.10;;;16.40;1.00;;;;;;4999704;28;20486;-76
2022/11/02 13:20:18;;;;;;;0.60;0.10;;;16.40;1.00;;;;;;4981628;28;20521;-78
2022/11/02 13:22:54;;;;;;;0.60;0.10;;;16.40;1.00;;;;;;4980517;28;20956;-78
2022/11/02 13:25:28;;;;;;;0.60;0.10;;;16.50;1.00;;;;;;5002717;28;20816;-76
2022/11/02 13:27:59;;;;;;;0.60;0.23;;;16.60;1.00;;;;;;4999823;28;20527;-78
2022/11/02 13:30:33;;;;;;;0.60;0.10;;;16.60;1.00;;;;;;4992518;28;20481;-77
2022/11/02 13:33:04;;;;;;;0.60;0.10;;;16.70;1.00;;;;;;4972823;28;20449;-76
2022/11/02 13:35:34;;;;;;;0.60;0.10;;;16.70;1.00;;;;;;4981301;28;20477;-78
2022/11/02 13:38:10;;;;;;;0.60;0.10;;;16.70;1.00;;;;;;4980017;28;20488;-77
2022/11/02 13:40:42;;;;;;;0.60;0.10;;;16.60;1.00;;;;;;4980563;28;20503;-76
2022/11/02 13:43:46;;;;;;;0.60;0.10;;;16.70;1.00;;;;;;4984827;28;20458;-78
2022/11/02 13:46:33;;;;;;;0.60;0.10;;;16.90;1.00;;;;;;4905451;29;20473;-75
2022/11/02 13:49:05;;;;;;;0.70;0.30;;;17.00;1.00;;;;;;4957796;28;21000;-75
2022/11/02 13:51:37;;;;;;;0.60;0.10;;;16.90;1.00;;;;;;4958766;29;20537;-76
2022/11/02 13:54:13;;;;;;;3.60;3.30;;;16.80;1.00;;;;;;4979125;28;20460;-74
2022/11/02 13:56:42;;;;;;;0.60;0.10;;;16.80;1.00;;;;;;4996867;28;20543;-76
2022/11/02 13:59:20;;;;;;;0.60;0.10;;;16.80;1.00;;;;;;4996718;28;20487;-77
2022/11/02 14:01:50;;;;;;;0.60;0.20;;;16.80;1.00;;;;;;4996897;28;20449;-76
2022/11/02 14:04:19;;;;;;;0.60;0.10;;;16.70;1.00;;;;;;4983381;28;20457;-76
2022/11/02 14:06:55;;;;;;;0.83;0.77;;;16.70;1.00;;;;;;4977570;28;20925;-76
2022/11/02 14:09:34;;;;;;;0.60;0.10;;;16.70;1.00;;;;;;4978546;28;20465;-77
2022/11/02 14:12:26;;;;;;;1.47;0.83;;;16.70;1.00;;;;;;4979598;28;20481;-77
2022/11/02 14:15:31;;;;;;;0.70;0.40;;;16.60;1.00;;;;;;4994382;28;20488;-76
2022/11/02 14:18:11;;;;;;;0.60;0.10;;;16.60;1.00;;;;;;4997527;28;20576;-76
2022/11/02 14:20:41;;;;;;;0.60;0.20;;;16.50;1.00;;;;;;5000816;28;20936;-77
2022/11/02 14:23:35;;;;;;;0.60;0.10;;;16.50;1.00;;;;;;4995863;28;20463;-76
2022/11/02 14:26:05;;;;;;;0.60;0.10;;;16.40;1.00;;;;;;4997774;28;20530;-76
2022/11/02 14:28:40;;;;;;;0.60;0.20;;;16.40;1.00;;;;;;4999272;28;20865;-76
2022/11/02 14:31:43;;;;;;;0.60;0.10;;;16.30;1.00;;;;;;4997203;28;20573;-75
2022/11/02 14:34:39;;;;;;;0.60;0.10;;;16.30;1.00;;;;;;4988828;28;21013;-78
2022/11/02 14:40:35;;;;;;;0.60;0.10;;;16.30;1.00;;;;;;4976153;28;20521;-76
2022/11/02 14:43:29;;;;;;;0.60;0.10;;;16.40;1.00;;;;;;4976964;28;20446;-76
2022/11/02 14:46:07;;;;;;;1.07;0.20;;;16.40;1.00;;;;;;4975522;28;20551;-76
2022/11/02 14:48:46;;;;;;;0.60;0.10;;;16.30;1.00;;;;;;4978475;28;21003;-76
2022/11/02 14:51:18;;;;;;;0.60;0.10;;;16.30;1.00;;;;;;4968390;28;20540;-75
2022/11/02 14:53:48;;;;;;;0.60;0.10;;;16.30;1.00;;;;;;4974108;28;20945;-75
2022/11/02 14:56:16;;;;;;;0.60;0.10;;;16.40;1.00;;;;;;4974629;28;20505;-75
2022/11/02 14:58:52;;;;;;;0.60;0.10;;;16.40;1.00;;;;;;4974325;28;20858;-74
2022/11/02 15:01:20;;;;;;;0.60;0.10;;;16.40;1.00;;;;;;4975698;28;20446;-76
2022/11/02 15:03:49;;;;;;;0.60;0.10;;;16.30;1.00;;;;;;4980136;28;20453;-73
2022/11/02 15:06:24;;;;;;;0.60;0.10;;;16.30;1.00;;;;;;4994271;28;20469;-76
2022/11/02 15:08:54;;;;;;;0.60;0.10;;;16.30;1.00;;;;;;4995127;28;20465;-76
2022/11/02 15:11:46;;;;;;;0.60;0.10;;;16.20;1.00;;;;;;4983421;28;20482;-76
2022/11/02 15:14:54;;;;;;;0.60;0.10;;;16.20;1.00;;;;;;4983978;28;20457;-76
2022/11/02 15:18:04;;;;;;;0.60;0.10;;;16.20;1.00;;;;;;4993392;28;20507;-75
2022/11/02 15:20:33;;;;;;;0.60;0.10;;;16.10;1.00;;;;;;4979590;28;20457;-76
2022/11/02 15:23:13;;;;;;;0.60;0.13;;;16.00;1.00;;;;;;4992165;28;20523;-75
2022/11/02 15:25:58;;;;;;;0.60;0.10;;;15.90;1.00;;;;;;4994130;28;20473;-75
2022/11/02 15:28:29;;;;;;;0.60;0.10;;;15.90;1.00;;;;;;4998549;28;20545;-77
2022/11/02 15:31:17;;;;;;;0.60;0.20;;;15.80;1.00;;;;;;5002160;28;20449;-79
2022/11/02 15:33:56;;;;;;;0.63;0.17;;;15.80;1.00;;;;;;5000637;28;20499;-79
2022/11/02 15:36:29;;;;;;;0.60;0.10;;;15.70;1.00;;;;;;4999634;28;20535;-77
2022/11/02 15:38:58;;;;;;;0.60;0.10;;;15.60;1.00;;;;;;5000865;28;20448;-77
2022/11/02 15:41:36;;;;;;;0.60;0.10;;;15.60;1.00;;;;;;4994392;28;20489;-75
2022/11/02 15:44:19;;;;;;;0.60;0.10;;;;;;;;;;4974761;28;20905;-75
2022/11/02 15:47:01;;;;;;;0.60;0.10;;;15.60;1.00;;;;;;4972859;28;20516;-74
2022/11/02 15:49:45;;;;;;;0.60;0.10;;;15.60;1.00;;;;;;4974808;28;20442;-76
2022/11/02 15:52:23;;;;;;;0.80;0.30;;;15.50;1.00;;;;;;4974761;28;20486;-76
2022/11/02 15:55:07;;;;;;;0.60;0.10;;;15.50;1.00;;;;;;4975037;28;20470;-75
2022/11/02 15:57:44;;;;;;;1.00;0.90;;;15.50;1.00;;;;;;4975783;28;20481;-76
2022/11/02 16:00:18;;;;;;;0.60;0.10;;;15.40;1.00;;;;;;4987792;28;20248;-78
2022/11/02 16:02:50;;;;;;;0.60;0.10;;;15.40;1.00;;;;;;4987451;28;20921;-78
2022/11/02 16:05:22;;;;;;;0.60;0.10;;;15.30;1.00;;;;;;4978245;28;20984;-76
2022/11/02 16:07:51;;;;;;;0.60;0.20;;;15.30;1.00;;;;;;4979716;28;20477;-76
2022/11/02 16:10:41;;;;;;;0.60;0.10;;;15.30;1.00;;;;;;4986575;28;20512;-76
2022/11/02 16:13:15;;;;;;;0.60;0.10;;;15.30;1.00;;;;;;4977197;28;20852;-77
2022/11/02 16:15:44;;;;;;;0.60;0.10;;;15.20;1.00;;;;;;4975856;28;21054;-77
2022/11/02 16:18:24;;;;;;;0.60;0.10;;;15.20;1.00;;;;;;4976616;28;20586;-78
2022/11/02 16:20:55;;;;;;;0.60;0.10;;;15.20;1.00;;;;;;4978641;28;20457;-76
2022/11/02 16:23:26;;;;;;;0.60;0.10;;;15.20;1.00;;;;;;4977140;28;20447;-77
2022/11/02 16:25:56;;;;;;;0.60;0.10;;;15.20;1.00;;;;;;4978082;28;20557;-77
2022/11/02 16:28:26;;;;;;;0.60;0.20;;;15.10;1.00;;;;;;4992760;28;20472;-77
2022/11/02 16:31:01;;;;;;;0.60;0.10;;;15.10;1.00;;;;;;4975596;28;20466;-78
2022/11/02 16:33:42;;;;;;;0.60;0.10;;;15.10;1.00;;;;;;4977099;28;20478;-77
2022/11/02 16:36:14;;;;;;;0.60;0.10;;;15.00;1.00;;;;;;4975438;28;20499;-77
2022/11/02 16:38:47;;;;;;;0.60;0.10;;;15.00;1.00;;;;;;4976697;28;20461;-78
2022/11/02 16:41:16;;;;;;;4.10;3.80;;;14.90;1.00;;;;;;4975636;28;20449;-77
2022/11/02 16:43:46;;;;;;;0.60;0.10;;;14.80;1.00;;;;;;4981691;28;20450;-76
2022/11/02 16:46:16;;;;;;;0.60;0.10;;;14.80;1.00;;;;;;4977564;28;20461;-77
2022/11/02 16:49:11;;;;;;;0.60;0.10;;;14.80;1.00;;;;;;4967219;28;20517;-77
2022/11/02 16:51:40;;;;;;;0.60;0.10;;;14.80;1.00;;;;;;4971077;28;20450;-77
2022/11/02 16:54:38;;;;;;;0.60;0.10;;;14.70;1.00;;;;;;4976530;28;20549;-76
2022/11/02 16:57:13;;;;;;;0.60;0.10;;;14.70;1.00;;;;;;4977103;28;20486;-77
2022/11/02 16:59:49;;;;;;;0.60;0.10;;;14.70;1.00;;;;;;4976894;28;20445;-77
2022/11/02 17:02:17;;;;;;;0.70;0.40;;;14.60;1.00;;;;;;4975829;28;20442;-77
2022/11/02 17:04:47;;;;;;;0.70;0.30;;;14.60;1.00;;;;;;4974083;28;20562;-77
2022/11/02 17:07:22;;;;;;;0.60;0.10;;;14.60;1.00;;;;;;4977593;28;20457;-76
2022/11/02 17:09:52;;;;;;;0.60;0.10;;;14.60;1.00;;;;;;4958245;29;20953;-77
2022/11/02 17:12:28;;;;;;;0.60;0.10;;;14.50;1.00;;;;;;4974599;28;20973;-77
2022/11/02 17:14:57;;;;;;;0.70;0.50;;;14.50;1.00;;;;;;4987122;23;20859;-69
2022/11/02 17:17:35;;;;;;;0.70;0.63;;;14.50;1.00;;;;;;4913175;29;20477;-69
2022/11/02 17:20:17;;;;;;;0.60;0.10;;;14.50;1.00;;;;;;4914908;29;20485;-72
2022/11/02 17:22:54;;;;;;;0.60;0.10;;;14.40;1.00;;;;;;4914672;29;20455;-70
2022/11/02 17:25:24;;;;;;;0.60;0.10;;;14.40;1.00;;;;;;4915171;29;20541;-69
2022/11/02 17:27:54;;;;;;;0.60;0.10;;;14.40;1.00;;;;;;4914806;29;20520;-69
2022/11/02 17:30:44;;;;;;;0.60;0.10;;;14.40;1.00;;;;;;4914718;29;20460;-70
2022/11/02 17:33:26;;;;;;;0.60;0.10;;;14.40;1.00;;;;;;4914065;29;20488;-71
2022/11/02 17:36:02;;;;;;;0.60;0.10;;;14.40;1.00;;;;;;4901907;29;20532;-70
2022/11/02 17:38:30;;;;;;;0.60;0.10;;;14.40;1.00;;;;;;4914833;29;20459;-69
2022/11/02 17:41:00;;;;;;;0.60;0.13;;;14.40;1.00;;;;;;4917990;29;20500;-69
2022/11/02 17:43:27;;;;;;;0.60;0.10;;;14.30;1.00;;;;;;4918128;29;20452;-70
2022/11/02 17:45:56;;;;;;;0.60;0.10;;;14.30;1.00;;;;;;4918290;29;20991;-70
2022/11/02 17:48:27;;;;;;;0.60;0.10;;;14.30;1.00;;;;;;4918558;29;20449;-70
2022/11/02 17:50:58;;;;;;;0.60;0.10;;;14.30;1.00;;;;;;4918434;29;20445;-70
2022/11/02 17:53:26;;;;;;;0.60;0.10;;;14.30;1.00;;;;;;4917217;29;20516;-71
2022/11/02 17:55:55;;;;;;;4.00;3.70;;;14.30;1.00;;;;;;4898880;29;20470;-69
2022/11/02 17:58:22;;;;;;;0.60;0.10;;;14.20;1.00;;;;;;4899127;29;20446;-69
2022/11/02 18:00:52;;;;;;;0.60;0.10;;;14.20;1.00;;;;;;4899471;29;20446;-70
2022/11/02 18:03:21;;;;;;;0.60;0.10;;;14.20;1.00;;;;;;4899210;29;20529;-69
2022/11/02 18:05:56;;;;;;;0.60;0.10;;;14.10;1.00;;;;;;4918092;29;20504;-71
2022/11/02 18:08:27;;;;;;;0.60;0.10;;;14.10;1.00;;;;;;4918008;29;20984;-71
2022/11/02 18:10:55;;;;;;;0.60;0.10;;;14.00;1.00;;;;;;4917899;29;20859;-71
2022/11/02 18:13:24;;;;;;;0.60;0.10;;;14.00;1.00;;;;;;4917784;29;20492;-70
2022/11/02 18:15:52;;;;;;;0.60;0.10;;;14.00;1.00;;;;;;4918203;29;20558;-70
2022/11/02 18:18:19;;;;;;;0.60;0.10;;;13.90;1.00;;;;;;4918130;29;20457;-71
2022/11/02 18:20:47;;;;;;;0.60;0.10;;;13.90;1.00;;;;;;4917432;29;20452;-69
2022/11/02 18:23:18;;;;;;;0.60;0.10;;;13.90;1.00;;;;;;4917511;29;20457;-72
2022/11/02 18:25:46;;;;;;;0.60;0.10;;;13.00;1.00;;;;;;4917955;29;20469;-69
2022/11/02 18:28:14;;;;;;;0.60;0.10;;;13.80;1.00;;;;;;4917670;29;20992;-69
2022/11/02 18:30:42;;;;;;;0.60;0.10;;;13.80;1.00;;;;;;4917273;29;20837;-70
2022/11/02 18:33:11;;;;;;;0.60;0.10;;;13.80;1.00;;;;;;4916590;29;20488;-68
2022/11/02 18:35:42;;;;;;;0.60;0.10;;;13.80;1.00;;;;;;4917824;29;20536;-68
2022/11/02 18:38:10;;;;;;;0.60;0.10;;;13.80;1.00;;;;;;4917826;29;20489;-69